createdAt,value
2023-02-22T00:02:25.479Z,83.26
2023-02-22T00:05:00.687Z,83.25
2023-02-22T00:07:35.840Z,83.26
2023-02-22T00:10:26.751Z,83.22
2023-02-22T00:13:13.365Z,83.33
2023-02-22T00:15:56.109Z,83.44
2023-02-22T00:18:49.073Z,83.48
2023-02-22T00:21:34.079Z,83.52
2023-02-22T00:24:24.004Z,83.67
2023-02-22T00:27:00.730Z,83.70
2023-02-22T00:29:36.535Z,83.76
2023-02-22T00:32:22.911Z,84.00
2023-02-22T00:35:08.358Z,84.39
2023-02-22T00:37:52.594Z,84.75
2023-02-22T00:40:46.499Z,84.69
2023-02-22T00:43:38.939Z,84.41
2023-02-22T00:46:32.158Z,84.33
2023-02-22T00:49:15.139Z,84.40
2023-02-22T00:51:50.583Z,84.45
2023-02-22T00:54:43.023Z,84.79
2023-02-22T00:57:35.202Z,84.87
2023-02-22T01:00:28.154Z,84.81
2023-02-22T01:03:21.691Z,84.94
2023-02-22T01:06:08.951Z,84.69
2023-02-22T01:08:53.905Z,84.63
2023-02-22T01:11:45.452Z,84.75
2023-02-22T01:14:37.890Z,85.05
2023-02-22T01:17:19.353Z,85.22
2023-02-22T01:20:14.129Z,85.12
2023-02-22T01:22:58.968Z,85.18
2023-02-22T01:25:51.240Z,85.47
2023-02-22T01:28:34.769Z,85.43
2023-02-22T01:31:25.638Z,85.29
2023-02-22T01:33:58.160Z,85.15
2023-02-22T01:36:41.360Z,85.31
2023-02-22T01:39:28.565Z,85.71
2023-02-22T01:42:19.398Z,85.75
2023-02-22T01:45:47.403Z,86.01
2023-02-22T01:48:44.550Z,85.83
2023-02-22T01:51:30.632Z,85.71
2023-02-22T01:54:15.928Z,85.88
2023-02-22T01:57:01.212Z,85.99
2023-02-22T01:59:41.380Z,86.20
2023-02-22T02:02:33.808Z,86.37
2023-02-22T02:05:19.158Z,86.39
2023-02-22T02:07:54.655Z,86.36
2023-02-22T02:10:36.371Z,86.22
2023-02-22T02:13:13.080Z,86.21
2023-02-22T02:16:05.829Z,86.17
2023-02-22T02:18:58.481Z,85.76
2023-02-22T02:22:00.940Z,85.72
2023-02-22T02:25:33.301Z,85.77
2023-02-22T02:28:54.878Z,86.05
2023-02-22T02:32:20.780Z,86.20
2023-02-22T02:35:22.067Z,86.46
2023-02-22T02:38:18.224Z,86.63
2023-02-22T02:44:04.115Z,86.64
2023-02-22T02:47:02.143Z,86.56
2023-02-22T02:49:59.780Z,86.06
2023-02-22T02:52:43.411Z,86.27
2023-02-22T02:55:20.101Z,86.38
2023-02-22T02:58:20.748Z,86.17
2023-02-22T03:01:04.801Z,85.94
2023-02-22T03:04:06.715Z,85.95
2023-02-22T03:07:23.785Z,85.77
2023-02-22T03:10:13.303Z,85.74
2023-02-22T03:13:10.341Z,85.72
2023-02-22T03:16:12.880Z,85.91
2023-02-22T03:19:07.326Z,86.25
2023-02-22T03:21:58.248Z,86.55
2023-02-22T03:24:55.009Z,86.69
2023-02-22T03:27:33.728Z,86.55
2023-02-22T03:30:32.177Z,86.36
2023-02-22T03:33:33.839Z,86.04
2023-02-22T03:36:31.629Z,86.12
2023-02-22T03:39:20.397Z,86.31
2023-02-22T03:41:59.479Z,86.19
2023-02-22T03:44:44.411Z,85.91
2023-02-22T03:47:24.137Z,86.16
2023-02-22T03:50:16.386Z,85.89
2023-02-22T03:53:08.961Z,85.68
2023-02-22T03:55:58.524Z,85.73
2023-02-22T03:58:52.898Z,85.63
2023-02-22T04:01:44.459Z,86.15
2023-02-22T04:04:31.523Z,86.09
2023-02-22T04:07:07.473Z,86.20
2023-02-22T04:09:50.850Z,85.89
2023-02-22T04:12:43.836Z,85.38
2023-02-22T04:15:36.404Z,85.66
2023-02-22T04:18:20.673Z,86.14
2023-02-22T04:20:56.609Z,86.37
2023-02-22T04:24:01.270Z,86.43
2023-02-22T04:26:52.004Z,86.30
2023-02-22T04:29:27.332Z,86.10
2023-02-22T04:32:20.096Z,86.01
2023-02-22T04:35:12.698Z,86.25
2023-02-22T04:38:06.091Z,86.57
2023-02-22T04:40:48.580Z,86.17
2023-02-22T04:43:39.428Z,85.97
2023-02-22T04:46:21.008Z,86.11
2023-02-22T04:49:08.125Z,86.16
2023-02-22T04:51:44.011Z,86.17
2023-02-22T04:54:37.090Z,86.61
2023-02-22T04:57:18.509Z,86.63
2023-02-22T05:00:10.991Z,86.51
2023-02-22T05:03:03.435Z,86.56
2023-02-22T05:05:45.130Z,86.73
2023-02-22T05:08:31.781Z,86.67
2023-02-22T05:11:24.500Z,87.00
2023-02-22T05:14:16.907Z,86.97
2023-02-22T05:17:09.247Z,87.15
2023-02-22T05:19:39.898Z,87.02
2023-02-22T05:22:33.177Z,87.02
2023-02-22T05:25:25.835Z,87.27
2023-02-22T05:28:19.118Z,87.19
2023-02-22T05:30:56.175Z,87.38
2023-02-22T05:33:48.618Z,87.45
2023-02-22T05:36:39.642Z,87.43
2023-02-22T05:39:32.597Z,87.74
2023-02-22T05:42:19.601Z,87.88
2023-02-22T05:45:15.690Z,87.70
2023-02-22T05:48:09.576Z,86.95
2023-02-22T05:50:52.785Z,87.07
2023-02-22T05:53:38.103Z,87.95
2023-02-22T05:56:28.907Z,88.17
2023-02-22T05:59:11.254Z,88.16
2023-02-22T06:02:03.625Z,88.41
2023-02-22T06:05:04.826Z,88.33
2023-02-22T06:07:38.730Z,88.45
2023-02-22T06:10:14.001Z,88.65
2023-02-22T06:13:07.885Z,88.78
2023-02-22T06:16:00.272Z,88.69
2023-02-22T06:18:43.536Z,88.31
2023-02-22T06:21:34.317Z,88.19
2023-02-22T06:24:19.364Z,88.05
2023-02-22T06:27:11.993Z,88.08
2023-02-22T06:30:03.918Z,88.24
2023-02-22T06:32:49.268Z,88.22
2023-02-22T06:35:41.579Z,88.01
2023-02-22T06:38:27.758Z,88.26
2023-02-22T06:41:12.294Z,88.39
2023-02-22T06:43:58.464Z,88.50
2023-02-22T06:46:52.230Z,88.45
2023-02-22T06:49:44.112Z,88.49
2023-02-22T06:52:29.450Z,88.28
2023-02-22T06:55:23.711Z,88.06
2023-02-22T06:58:16.316Z,87.71
2023-02-22T07:00:58.729Z,87.87
2023-02-22T07:03:53.040Z,87.94
2023-02-22T07:06:38.734Z,87.99
2023-02-22T07:09:31.104Z,87.80
2023-02-22T07:12:11.934Z,87.98
2023-02-22T07:15:02.883Z,87.55
2023-02-22T07:17:55.382Z,87.53
2023-02-22T07:20:41.762Z,87.26
2023-02-22T07:23:34.149Z,87.49
2023-02-22T07:26:20.510Z,87.75
2023-02-22T07:28:55.856Z,87.69
2023-02-22T07:31:41.233Z,87.98
2023-02-22T07:34:19.106Z,88.09
2023-02-22T07:37:02.411Z,87.63
2023-02-22T07:39:45.399Z,87.40
2023-02-22T07:42:28.795Z,87.49
2023-02-22T07:45:06.342Z,87.16
2023-02-22T07:47:59.203Z,87.43
2023-02-22T07:50:41.471Z,87.68
2023-02-22T07:53:28.668Z,87.78
2023-02-22T07:56:08.987Z,87.41
2023-02-22T07:58:53.959Z,87.14
2023-02-22T08:01:37.506Z,87.32
2023-02-22T08:04:13.094Z,87.57
2023-02-22T08:06:46.418Z,87.35
2023-02-22T08:09:23.948Z,87.05
2023-02-22T08:12:07.087Z,86.64
2023-02-22T08:14:50.448Z,86.48
2023-02-22T08:17:33.688Z,86.31
2023-02-22T08:20:10.237Z,86.44
2023-02-22T08:22:56.964Z,86.25
2023-02-22T08:25:33.141Z,85.97
2023-02-22T08:28:12.672Z,86.01
2023-02-22T08:30:57.945Z,86.01
2023-02-22T08:33:50.644Z,86.01
2023-02-22T08:36:45.715Z,85.51
2023-02-22T08:39:31.933Z,85.62
2023-02-22T08:42:09.143Z,85.42
2023-02-22T08:45:01.538Z,85.21
2023-02-22T08:47:36.476Z,85.10
2023-02-22T08:50:22.534Z,85.50
2023-02-22T08:53:07.162Z,85.81
2023-02-22T08:55:52.281Z,85.65
2023-02-22T08:58:38.621Z,85.53
2023-02-22T09:01:19.318Z,85.38
2023-02-22T09:04:04.406Z,85.08
2023-02-22T09:06:57.004Z,84.68
2023-02-22T09:09:32.302Z,84.73
2023-02-22T09:12:15.892Z,84.54
2023-02-22T09:14:51.291Z,84.18
2023-02-22T09:17:26.747Z,83.38
2023-02-22T09:20:03.843Z,83.59
2023-02-22T09:22:39.188Z,83.20
2023-02-22T09:25:32.022Z,82.41
2023-02-22T09:28:13.426Z,82.30
2023-02-22T09:30:46.193Z,82.56
2023-02-22T09:33:32.582Z,82.81
2023-02-22T09:36:21.843Z,82.56
2023-02-22T09:38:59.641Z,81.86
2023-02-22T09:41:48.478Z,81.49
2023-02-22T09:44:28.178Z,81.46
2023-02-22T09:47:03.755Z,81.13
2023-02-22T09:49:59.584Z,80.86
2023-02-22T09:52:40.719Z,80.65
2023-02-22T09:55:31.178Z,80.32
2023-02-22T09:58:11.178Z,79.87
2023-02-22T10:00:48.414Z,79.66
2023-02-22T10:03:36.164Z,78.88
2023-02-22T10:06:14.934Z,78.93
2023-02-22T10:08:51.177Z,78.51
2023-02-22T10:11:37.219Z,77.49
2023-02-22T10:14:29.475Z,76.38
2023-02-22T10:17:12.985Z,75.92
2023-02-22T10:19:56.477Z,76.64
2023-02-22T10:23:43.557Z,74.33
2023-02-22T10:26:44.971Z,71.99
2023-02-22T10:29:28.394Z,71.13
2023-02-22T10:32:04.580Z,70.66
2023-02-22T10:34:43.655Z,70.20
2023-02-22T10:37:28.049Z,69.65
2023-02-22T10:40:20.555Z,69.58
2023-02-22T10:42:52.788Z,67.84
2023-02-22T10:45:37.348Z,68.16
2023-02-22T10:48:11.965Z,67.67
2023-02-22T10:50:46.852Z,67.52
2023-02-22T10:53:19.267Z,66.16
2023-02-22T10:56:27.768Z,65.17
2023-02-22T10:59:02.607Z,65.90
2023-02-22T11:01:41.028Z,64.63
2023-02-22T11:04:17.138Z,64.54
2023-02-22T11:07:10.202Z,65.22
2023-02-22T11:09:59.649Z,64.83
2023-02-22T11:12:38.545Z,65.14
2023-02-22T11:15:30.069Z,62.93
2023-02-22T11:18:05.083Z,60.70
2023-02-22T11:20:48.961Z,60.85
2023-02-22T11:23:33.356Z,60.25
2023-02-22T11:26:10.418Z,59.89
2023-02-22T11:28:57.653Z,58.98
2023-02-22T11:31:33.125Z,58.68
2023-02-22T11:34:08.635Z,57.94
2023-02-22T11:36:54.822Z,58.63
2023-02-22T11:39:29.721Z,58.59
2023-02-22T11:42:22.785Z,59.16
2023-02-22T11:45:13.487Z,59.39
2023-02-22T11:48:01.950Z,59.16
2023-02-22T11:51:01.177Z,59.14
2023-02-22T11:54:01.330Z,58.79
2023-02-22T11:56:40.716Z,57.51
2023-02-22T11:59:28.224Z,57.79
2023-02-22T12:02:06.079Z,58.18
2023-02-22T12:05:13.295Z,58.30
2023-02-22T12:08:03.167Z,58.52
2023-02-22T12:10:55.304Z,58.05
2023-02-22T12:13:49.621Z,57.33
2023-02-22T12:16:31.799Z,56.81
2023-02-22T12:19:09.451Z,57.15
2023-02-22T12:21:48.531Z,57.25
2023-02-22T12:24:25.486Z,57.37
2023-02-22T12:27:05.656Z,58.19
2023-02-22T12:29:44.553Z,58.10
2023-02-22T12:32:31.062Z,57.07
2023-02-22T12:35:10.947Z,57.03
2023-02-22T12:37:58.946Z,57.79
2023-02-22T12:40:40.794Z,57.50
2023-02-22T12:43:22.477Z,57.34
2023-02-22T12:46:11.564Z,57.82
2023-02-22T12:48:53.366Z,57.96
2023-02-22T12:51:32.921Z,57.99
2023-02-22T12:54:19.857Z,58.04
2023-02-22T12:57:21.860Z,58.14
2023-02-22T12:59:57.297Z,57.97
2023-02-22T13:02:38.258Z,57.39
2023-02-22T13:05:18.537Z,56.49
2023-02-22T13:08:11.345Z,56.87
2023-02-22T13:11:03.975Z,55.93
2023-02-22T13:13:54.870Z,56.44
2023-02-22T13:16:37.617Z,56.29
2023-02-22T13:19:23.181Z,55.85
2023-02-22T13:22:06.433Z,56.11
2023-02-22T13:25:00.416Z,56.77
2023-02-22T13:27:38.867Z,56.50
2023-02-22T13:30:30.513Z,56.09
2023-02-22T13:33:40.799Z,56.28
2023-02-22T13:36:23.116Z,56.44
2023-02-22T13:39:20.411Z,56.83
2023-02-22T13:42:05.255Z,56.49
2023-02-22T13:44:59.830Z,56.29
2023-02-22T13:47:51.201Z,55.58
2023-02-22T13:50:43.175Z,55.71
2023-02-22T13:53:45.433Z,56.49
2023-02-22T13:56:30.520Z,55.83
2023-02-22T13:59:04.497Z,55.75
2023-02-22T14:01:58.076Z,56.35
2023-02-22T14:04:50.465Z,56.33
2023-02-22T14:07:50.833Z,56.93
2023-02-22T14:10:51.896Z,56.96
2023-02-22T14:13:57.027Z,56.91
2023-02-22T14:16:30.585Z,57.15
2023-02-22T14:19:23.640Z,56.76
2023-02-22T14:22:03.069Z,57.13
2023-02-22T14:24:46.881Z,56.26
2023-02-22T14:27:42.819Z,56.16
2023-02-22T14:30:27.147Z,57.13
2023-02-22T14:33:03.081Z,57.45
2023-02-22T14:35:50.369Z,58.15
2023-02-22T14:38:26.530Z,58.31
2023-02-22T14:41:11.263Z,57.81
2023-02-22T14:46:56.883Z,58.36
2023-02-22T14:49:45.958Z,58.41
2023-02-22T14:52:40.822Z,58.76
2023-02-22T14:55:29.061Z,59.01
2023-02-22T14:58:28.950Z,59.33
2023-02-22T15:01:27.262Z,59.05
2023-02-22T15:04:19.697Z,58.76
2023-02-22T15:06:56.497Z,59.15
2023-02-22T15:10:05.777Z,59.39
2023-02-22T15:12:51.987Z,59.37
2023-02-22T15:15:38.781Z,59.37
2023-02-22T15:19:04.950Z,59.68
2023-02-22T15:22:09.888Z,59.62
2023-02-22T15:25:07.089Z,59.43
2023-02-22T15:27:55.156Z,59.76
2023-02-22T15:31:19.424Z,59.89
2023-02-22T15:34:29.951Z,59.86
2023-02-22T15:37:29.479Z,60.18
2023-02-22T15:40:21.731Z,60.28
2023-02-22T15:43:15.320Z,60.43
2023-02-22T15:46:14.201Z,60.53
2023-02-22T15:49:37.197Z,61.12
2023-02-22T15:52:33.668Z,61.51
2023-02-22T15:55:18.573Z,62.00
2023-02-22T15:58:13.071Z,62.45
2023-02-22T16:01:34.629Z,62.87
2023-02-22T16:04:31.706Z,62.90
2023-02-22T16:07:17.853Z,62.73
2023-02-22T16:10:23.549Z,62.58
2023-02-22T16:13:30.981Z,62.83
2023-02-22T16:16:32.334Z,63.61
2023-02-22T16:19:39.252Z,64.15
2023-02-22T16:22:34.766Z,64.28
2023-02-22T16:25:27.484Z,64.46
2023-02-22T16:28:34.041Z,64.41
2023-02-22T16:31:29.467Z,64.39
2023-02-22T16:34:11.502Z,64.49
2023-02-22T16:36:57.786Z,64.93
2023-02-22T16:39:52.500Z,65.21
2023-02-22T16:42:36.027Z,65.41
2023-02-22T16:45:16.355Z,65.64
2023-02-22T16:48:05.675Z,65.89
2023-02-22T16:50:52.419Z,65.89
2023-02-22T16:53:31.838Z,65.99
2023-02-22T16:56:17.880Z,66.26
2023-02-22T16:59:15.347Z,66.25
2023-02-22T17:01:58.845Z,65.93
2023-02-22T17:04:52.047Z,66.04
2023-02-22T17:07:45.334Z,66.40
2023-02-22T17:10:22.234Z,66.60
2023-02-22T17:13:16.109Z,66.91
2023-02-22T17:16:05.966Z,67.37
2023-02-22T17:18:58.806Z,67.79
2023-02-22T17:21:53.244Z,67.91
2023-02-22T17:24:46.927Z,68.14
2023-02-22T17:27:33.379Z,68.23
2023-02-22T17:30:31.287Z,68.23
2023-02-22T17:33:26.822Z,68.46
2023-02-22T17:36:08.093Z,68.62
2023-02-22T17:39:02.027Z,68.63
2023-02-22T17:41:57.674Z,68.61
2023-02-22T17:44:50.122Z,68.60
2023-02-22T17:47:51.346Z,68.86
2023-02-22T17:50:46.613Z,69.21
2023-02-22T17:53:40.453Z,69.37
2023-02-22T17:56:33.284Z,69.82
2023-02-22T17:59:09.512Z,70.04
2023-02-22T18:02:03.344Z,70.22
2023-02-22T18:04:55.936Z,70.40
2023-02-22T18:07:48.931Z,70.54
2023-02-22T18:10:42.706Z,70.76
2023-02-22T18:13:35.153Z,71.04
2023-02-22T18:16:26.836Z,71.13
2023-02-22T18:19:22.711Z,71.41
2023-02-22T18:22:15.653Z,71.93
2023-02-22T18:25:09.381Z,72.21
2023-02-22T18:28:02.181Z,72.34
2023-02-22T18:30:55.077Z,72.27
2023-02-22T18:33:48.319Z,72.31
2023-02-22T18:36:40.807Z,72.24
2023-02-22T18:39:26.068Z,72.15
2023-02-22T18:42:17.608Z,72.15
2023-02-22T18:45:11.484Z,72.06
2023-02-22T18:48:04.445Z,72.21
2023-02-22T18:51:00.162Z,72.52
2023-02-22T18:53:47.787Z,72.62
2023-02-22T18:56:41.119Z,72.66
2023-02-22T18:59:33.838Z,72.99
2023-02-22T19:02:26.484Z,73.06
2023-02-22T19:05:17.339Z,73.10
2023-02-22T19:08:11.484Z,73.20
2023-02-22T19:10:56.808Z,73.12
2023-02-22T19:13:50.590Z,72.93
2023-02-22T19:16:46.502Z,72.88
2023-02-22T19:19:39.118Z,72.86
2023-02-22T19:22:32.861Z,73.00
2023-02-22T19:25:25.566Z,73.10
2023-02-22T19:28:17.950Z,73.29
2023-02-22T19:31:19.550Z,72.90
2023-02-22T19:34:15.071Z,72.70
2023-02-22T19:37:08.762Z,72.84
2023-02-22T19:39:55.265Z,72.76
2023-02-22T19:42:42.281Z,72.92
2023-02-22T19:45:35.166Z,72.91
2023-02-22T19:48:20.868Z,72.73
2023-02-22T19:51:14.938Z,72.73
2023-02-22T19:54:18.138Z,72.84
2023-02-22T19:57:13.630Z,72.77
2023-02-22T20:03:26.470Z,72.47
2023-02-22T20:06:19.122Z,72.54
2023-02-22T20:09:16.855Z,72.56
2023-02-22T20:12:12.554Z,72.70
2023-02-22T20:15:08.528Z,72.76
2023-02-22T20:18:02.140Z,72.59
2023-02-22T20:20:57.933Z,72.57
2023-02-22T20:23:50.985Z,72.39
2023-02-22T20:26:49.960Z,72.19
2023-02-22T20:29:32.698Z,71.80
2023-02-22T20:32:29.192Z,71.68
2023-02-22T20:35:23.616Z,71.78
2023-02-22T20:38:09.550Z,71.74
2023-02-22T20:41:02.722Z,71.97
2023-02-22T20:43:55.430Z,71.86
2023-02-22T20:46:41.702Z,72.06
2023-02-22T20:49:43.815Z,72.16
2023-02-22T20:52:37.559Z,71.94
2023-02-22T20:55:28.756Z,71.92
2023-02-22T20:58:14.742Z,71.82
2023-02-22T21:01:10.081Z,71.89
2023-02-22T21:04:04.919Z,72.01
2023-02-22T21:06:49.984Z,72.12
2023-02-22T21:09:42.739Z,72.13
2023-02-22T21:12:36.116Z,72.21
2023-02-22T21:15:25.929Z,72.39
2023-02-22T21:18:18.433Z,72.36
2023-02-22T21:21:10.522Z,72.46
2023-02-22T21:24:03.221Z,72.56
2023-02-22T21:26:49.235Z,72.56
2023-02-22T21:29:34.838Z,72.86
2023-02-22T21:32:27.462Z,73.14
2023-02-22T21:35:21.411Z,73.32
2023-02-22T21:38:14.613Z,73.31
2023-02-22T21:41:07.571Z,73.32
2023-02-22T21:43:53.830Z,73.46
2023-02-22T21:46:48.903Z,73.61
2023-02-22T21:49:41.330Z,73.83
2023-02-22T21:52:25.664Z,74.06
2023-02-22T21:55:19.330Z,74.02
2023-02-22T21:58:06.028Z,74.20
2023-02-22T22:00:48.788Z,74.14
2023-02-22T22:03:41.164Z,74.37
2023-02-22T22:06:27.882Z,74.33
2023-02-22T22:09:19.210Z,74.31
2023-02-22T22:12:12.333Z,74.44
2023-02-22T22:15:05.117Z,74.44
2023-02-22T22:18:05.484Z,74.72
2023-02-22T22:20:57.907Z,74.92
2023-02-22T22:23:50.665Z,75.04
2023-02-22T22:26:44.073Z,75.24
2023-02-22T22:29:37.530Z,75.43
2023-02-22T22:32:30.750Z,75.48
2023-02-22T22:35:23.574Z,75.50
2023-02-22T22:38:16.763Z,75.84
2023-02-22T22:41:10.438Z,76.04
2023-02-22T22:44:02.744Z,76.18
2023-02-22T22:46:49.884Z,76.15
2023-02-22T22:49:42.796Z,76.10
2023-02-22T22:52:37.754Z,76.11
2023-02-22T22:55:30.383Z,76.29
2023-02-22T22:58:21.160Z,76.46
2023-02-22T23:01:19.742Z,76.53
2023-02-22T23:04:07.994Z,76.75
2023-02-22T23:07:00.532Z,76.78
2023-02-22T23:09:51.545Z,76.90
2023-02-22T23:12:44.036Z,77.00
2023-02-22T23:15:29.820Z,77.14
2023-02-22T23:18:22.294Z,77.07
2023-02-22T23:21:15.467Z,77.10
2023-02-22T23:24:00.800Z,77.10
2023-02-22T23:26:48.570Z,77.28
2023-02-22T23:29:45.676Z,77.32
2023-02-22T23:32:38.396Z,77.46
2023-02-22T23:35:30.976Z,77.58
2023-02-22T23:38:24.236Z,77.67
2023-02-22T23:41:10.146Z,77.82
2023-02-22T23:43:55.185Z,77.93
2023-02-22T23:46:48.979Z,78.02
2023-02-22T23:49:43.481Z,77.89
2023-02-22T23:52:44.329Z,78.09
2023-02-22T23:55:39.200Z,78.18
2023-02-22T23:58:32.189Z,78.29
